sensor_id;sensor_type;location;lat;lon;timestamp;pressure;altitude;pressure_sealevel;temperature;humidity
69780;BME280;57052;55.602;38.096;2023-01-25T00:01:28;101942.66;;;1.35;68.07
69780;BME280;57052;55.602;38.096;2023-01-25T00:03:53;101938.97;;;1.36;68.41
69780;BME280;57052;55.602;38.096;2023-01-25T00:06:19;101928.97;;;1.38;68.46
69780;BME280;57052;55.602;38.096;2023-01-25T00:08:49;101933.63;;;1.44;68.59
69780;BME280;57052;55.602;38.096;2023-01-25T00:11:14;101935.31;;;1.45;68.08
69780;BME280;57052;55.602;38.096;2023-01-25T00:13:41;101934.28;;;1.46;67.91
69780;BME280;57052;55.602;38.096;2023-01-25T00:16:07;101919.44;;;1.43;68.04
69780;BME280;57052;55.602;38.096;2023-01-25T00:18:33;101919.63;;;1.50;68.43
69780;BME280;57052;55.602;38.096;2023-01-25T00:20:58;101927.13;;;1.54;68.01
69780;BME280;57052;55.602;38.096;2023-01-25T00:23:24;101923.28;;;1.57;68.39
69780;BME280;57052;55.602;38.096;2023-01-25T00:25:58;101925.28;;;1.55;67.87
69780;BME280;57052;55.602;38.096;2023-01-25T00:28:24;101916.44;;;1.54;68.45
69780;BME280;57052;55.602;38.096;2023-01-25T00:30:49;101902.44;;;1.52;68.12
69780;BME280;57052;55.602;38.096;2023-01-25T00:35:43;101922.09;;;1.59;67.70
69780;BME280;57052;55.602;38.096;2023-01-25T00:38:26;101921.78;;;1.54;68.39
69780;BME280;57052;55.602;38.096;2023-01-25T00:40:53;101901.94;;;1.41;68.32
69780;BME280;57052;55.602;38.096;2023-01-25T00:43:18;101926.13;;;1.55;68.08
69780;BME280;57052;55.602;38.096;2023-01-25T00:45:44;101924.25;;;1.56;68.05
69780;BME280;57052;55.602;38.096;2023-01-25T00:48:10;101915.97;;;1.43;68.36
69780;BME280;57052;55.602;38.096;2023-01-25T00:50:36;101920.94;;;1.46;67.83
69780;BME280;57052;55.602;38.096;2023-01-25T00:53:02;101897.63;;;1.32;68.37
69780;BME280;57052;55.602;38.096;2023-01-25T00:55:27;101921.97;;;1.37;68.82
69780;BME280;57052;55.602;38.096;2023-01-25T00:57:53;101917.28;;;1.39;68.33
69780;BME280;57052;55.602;38.096;2023-01-25T01:00:19;101910.97;;;1.40;68.79
69780;BME280;57052;55.602;38.096;2023-01-25T01:02:44;101909.13;;;1.40;68.53
69780;BME280;57052;55.602;38.096;2023-01-25T01:05:10;101895.44;;;1.43;68.66
69780;BME280;57052;55.602;38.096;2023-01-25T01:07:35;101891.59;;;1.46;68.23
69780;BME280;57052;55.602;38.096;2023-01-25T01:10:01;101848.78;;;1.23;68.94
69780;BME280;57052;55.602;38.096;2023-01-25T01:12:27;101885.78;;;1.50;68.08
69780;BME280;57052;55.602;38.096;2023-01-25T01:14:52;101891.91;;;1.51;68.30
69780;BME280;57052;55.602;38.096;2023-01-25T01:17:18;101869.91;;;1.49;68.32
69780;BME280;57052;55.602;38.096;2023-01-25T01:19:43;101881.63;;;1.48;67.90
69780;BME280;57052;55.602;38.096;2023-01-25T01:22:09;101891.59;;;1.46;68.42
69780;BME280;57052;55.602;38.096;2023-01-25T01:24:35;101887.09;;;1.46;68.21
69780;BME280;57052;55.602;38.096;2023-01-25T01:27:00;101866.13;;;1.35;68.17
69780;BME280;57052;55.602;38.096;2023-01-25T01:29:26;101869.44;;;1.37;68.25
69780;BME280;57052;55.602;38.096;2023-01-25T01:31:52;101872.44;;;1.42;68.11
69780;BME280;57052;55.602;38.096;2023-01-25T01:34:18;101875.59;;;1.46;68.41
69780;BME280;57052;55.602;38.096;2023-01-25T01:36:44;101870.09;;;1.47;68.36
69780;BME280;57052;55.602;38.096;2023-01-25T01:39:09;101869.59;;;1.52;68.70
69780;BME280;57052;55.602;38.096;2023-01-25T01:41:36;101859.41;;;1.55;68.08
69780;BME280;57052;55.602;38.096;2023-01-25T01:44:02;101862.09;;;1.55;68.04
69780;BME280;57052;55.602;38.096;2023-01-25T01:46:34;101857.41;;;1.57;68.48
69780;BME280;57052;55.602;38.096;2023-01-25T01:49:24;101856.22;;;1.60;68.43
69780;BME280;57052;55.602;38.096;2023-01-25T01:52:00;101851.34;;;1.63;68.03
69780;BME280;57052;55.602;38.096;2023-01-25T01:54:36;101845.38;;;1.61;68.40
69780;BME280;57052;55.602;38.096;2023-01-25T01:57:15;101839.56;;;1.58;67.84
69780;BME280;57052;55.602;38.096;2023-01-25T02:02:11;101845.56;;;1.60;67.86
69780;BME280;57052;55.602;38.096;2023-01-25T02:04:37;101845.56;;;1.60;67.45
69780;BME280;57052;55.602;38.096;2023-01-25T02:07:16;101841.91;;;1.53;67.81
69780;BME280;57052;55.602;38.096;2023-01-25T02:09:44;101848.41;;;1.50;68.50
69780;BME280;57052;55.602;38.096;2023-01-25T02:12:10;101854.56;;;1.51;68.38
69780;BME280;57052;55.602;38.096;2023-01-25T02:14:42;101845.56;;;1.52;67.98
69780;BME280;57052;55.602;38.096;2023-01-25T02:17:10;101832.03;;;1.53;68.28
69780;BME280;57052;55.602;38.096;2023-01-25T02:19:44;101836.19;;;1.56;68.09
69780;BME280;57052;55.602;38.096;2023-01-25T02:22:20;101835.41;;;1.55;68.24
69780;BME280;57052;55.602;38.096;2023-01-25T02:25:24;101842.72;;;1.53;68.15
69780;BME280;57052;55.602;38.096;2023-01-25T02:27:51;101847.91;;;1.47;67.66
69780;BME280;57052;55.602;38.096;2023-01-25T02:30:18;101839.91;;;1.47;67.98
69780;BME280;57052;55.602;38.096;2023-01-25T02:32:43;101838.22;;;1.46;68.00
69780;BME280;57052;55.602;38.096;2023-01-25T02:35:18;101846.22;;;1.46;68.07
69780;BME280;57052;55.602;38.096;2023-01-25T02:37:44;101845.59;;;1.44;67.75
69780;BME280;57052;55.602;38.096;2023-01-25T02:40:10;101849.59;;;1.48;68.17
69780;BME280;57052;55.602;38.096;2023-01-25T02:42:36;101865.94;;;1.53;67.63
69780;BME280;57052;55.602;38.096;2023-01-25T02:45:04;101850.56;;;1.55;67.84
69780;BME280;57052;55.602;38.096;2023-01-25T02:47:31;101837.25;;;1.47;67.84
69780;BME280;57052;55.602;38.096;2023-01-25T02:49:56;101856.06;;;1.53;67.62
69780;BME280;57052;55.602;38.096;2023-01-25T02:52:22;101854.41;;;1.52;67.96
69780;BME280;57052;55.602;38.096;2023-01-25T02:54:47;101851.56;;;1.54;67.82
69780;BME280;57052;55.602;38.096;2023-01-25T02:57:13;101854.22;;;1.54;68.16
69780;BME280;57052;55.602;38.096;2023-01-25T02:59:38;101850.25;;;1.50;67.65
69780;BME280;57052;55.602;38.096;2023-01-25T03:02:04;101847.25;;;1.53;67.78
69780;BME280;57052;55.602;38.096;2023-01-25T03:04:30;101836.25;;;1.48;67.88
69780;BME280;57052;55.602;38.096;2023-01-25T03:06:55;101850.56;;;1.55;68.29
69780;BME280;57052;55.602;38.096;2023-01-25T03:09:21;101855.56;;;1.58;68.33
69780;BME280;57052;55.602;38.096;2023-01-25T03:11:46;101849.88;;;1.61;67.72
69780;BME280;57052;55.602;38.096;2023-01-25T03:14:12;101831.22;;;1.53;67.62
69780;BME280;57052;55.602;38.096;2023-01-25T03:16:38;101834.25;;;1.50;67.61
69780;BME280;57052;55.602;38.096;2023-01-25T03:19:03;101850.56;;;1.55;67.51
69780;BME280;57052;55.602;38.096;2023-01-25T03:21:29;101855.09;;;1.46;67.92
69780;BME280;57052;55.602;38.096;2023-01-25T03:23:58;101835.59;;;1.38;68.00
69780;BME280;57052;55.602;38.096;2023-01-25T03:26:24;101841.28;;;1.43;67.87
69780;BME280;57052;55.602;38.096;2023-01-25T03:28:50;101843.22;;;1.49;68.14
69780;BME280;57052;55.602;38.096;2023-01-25T03:31:16;101840.41;;;1.50;68.21
69780;BME280;57052;55.602;38.096;2023-01-25T03:33:42;101828.59;;;1.45;67.75
69780;BME280;57052;55.602;38.096;2023-01-25T03:36:08;101826.25;;;1.42;67.92
69780;BME280;57052;55.602;38.096;2023-01-25T03:38:34;101824.75;;;1.47;68.09
69780;BME280;57052;55.602;38.096;2023-01-25T03:41:01;101825.06;;;1.52;67.96
69780;BME280;57052;55.602;38.096;2023-01-25T03:43:27;101820.19;;;1.56;67.63
69780;BME280;57052;55.602;38.096;2023-01-25T03:45:55;101828.56;;;1.53;68.29
69780;BME280;57052;55.602;38.096;2023-01-25T03:48:21;101829.03;;;1.56;67.84
69780;BME280;57052;55.602;38.096;2023-01-25T03:50:52;101835.88;;;1.59;67.91
69780;BME280;57052;55.602;38.096;2023-01-25T03:53:18;101822.72;;;1.57;68.21
69780;BME280;57052;55.602;38.096;2023-01-25T03:56:03;101840.56;;;1.57;68.40
69780;BME280;57052;55.602;38.096;2023-01-25T03:58:30;101832.22;;;1.52;68.12
69780;BME280;57052;55.602;38.096;2023-01-25T04:00:59;101825.91;;;1.53;67.93
69780;BME280;57052;55.602;38.096;2023-01-25T04:03:25;101791.59;;;1.25;68.68
69780;BME280;57052;55.602;38.096;2023-01-25T04:05:52;101827.06;;;1.50;68.14
69780;BME280;57052;55.602;38.096;2023-01-25T04:08:17;101820.25;;;1.48;68.19
69780;BME280;57052;55.602;38.096;2023-01-25T04:10:43;101811.75;;;1.44;68.51
69780;BME280;57052;55.602;38.096;2023-01-25T04:13:10;101808.22;;;1.44;68.83
69780;BME280;57052;55.602;38.096;2023-01-25T04:15:36;101791.75;;;1.40;68.42
69780;BME280;57052;55.602;38.096;2023-01-25T04:18:01;101803.22;;;1.49;68.95
69780;BME280;57052;55.602;38.096;2023-01-25T04:20:27;101803.06;;;1.50;68.53
69780;BME280;57052;55.602;38.096;2023-01-25T04:22:52;101811.06;;;1.50;68.77
69780;BME280;57052;55.602;38.096;2023-01-25T04:25:18;101813.91;;;1.41;68.51
69780;BME280;57052;55.602;38.096;2023-01-25T04:27:44;101770.13;;;1.19;68.12
69780;BME280;57052;55.602;38.096;2023-01-25T04:30:10;101794.97;;;1.27;68.75
69780;BME280;57052;55.602;38.096;2023-01-25T04:32:36;101813.91;;;1.41;68.75
69780;BME280;57052;55.602;38.096;2023-01-25T04:35:02;101815.25;;;1.37;68.82
69780;BME280;57052;55.602;38.096;2023-01-25T04:37:28;101803.28;;;1.33;68.93
69780;BME280;57052;55.602;38.096;2023-01-25T04:39:54;101815.06;;;1.38;68.84
69780;BME280;57052;55.602;38.096;2023-01-25T04:42:20;101829.75;;;1.42;69.11
69780;BME280;57052;55.602;38.096;2023-01-25T04:44:45;101837.25;;;1.47;68.85
69780;BME280;57052;55.602;38.096;2023-01-25T04:47:11;101837.91;;;1.49;68.10
69780;BME280;57052;55.602;38.096;2023-01-25T04:49:36;101840.09;;;1.45;68.46
69780;BME280;57052;55.602;38.096;2023-01-25T04:52:02;101843.22;;;1.49;68.10
69780;BME280;57052;55.602;38.096;2023-01-25T04:54:28;101836.41;;;1.46;68.71
69780;BME280;57052;55.602;38.096;2023-01-25T04:56:53;101837.44;;;1.45;68.84
69780;BME280;57052;55.602;38.096;2023-01-25T04:59:19;101839.56;;;1.50;68.37
69780;BME280;57052;55.602;38.096;2023-01-25T05:01:44;101846.22;;;1.54;68.28
69780;BME280;57052;55.602;38.096;2023-01-25T05:04:10;101844.72;;;1.51;69.01
69780;BME280;57052;55.602;38.096;2023-01-25T05:06:35;101839.06;;;1.54;68.42
69780;BME280;57052;55.602;38.096;2023-01-25T05:09:01;101841.53;;;1.56;68.29
69780;BME280;57052;55.602;38.096;2023-01-25T05:11:27;101848.88;;;1.62;68.76
69780;BME280;57052;55.602;38.096;2023-01-25T05:13:52;101849.06;;;1.60;68.82
69780;BME280;57052;55.602;38.096;2023-01-25T05:16:19;101847.38;;;1.59;68.29
69780;BME280;57052;55.602;38.096;2023-01-25T05:18:44;101853.25;;;1.55;68.69
69780;BME280;57052;55.602;38.096;2023-01-25T05:21:10;101849.53;;;1.56;68.77
69780;BME280;57052;55.602;38.096;2023-01-25T05:23:56;101849.53;;;1.56;68.85
69780;BME280;57052;55.602;38.096;2023-01-25T05:26:21;101854.22;;;1.54;68.71
69780;BME280;57052;55.602;38.096;2023-01-25T05:29:05;101860.09;;;1.49;68.76
69780;BME280;57052;55.602;38.096;2023-01-25T05:31:31;101850.59;;;1.47;68.48
69780;BME280;57052;55.602;38.096;2023-01-25T05:33:56;101848.59;;;1.41;68.61
69780;BME280;57052;55.602;38.096;2023-01-25T05:36:22;101846.94;;;1.40;68.41
69780;BME280;57052;55.602;38.096;2023-01-25T05:38:47;101852.41;;;1.46;69.19
69780;BME280;57052;55.602;38.096;2023-01-25T05:41:13;101834.25;;;1.42;68.60
69780;BME280;57052;55.602;38.096;2023-01-25T05:43:39;101841.72;;;1.54;68.68
69780;BME280;57052;55.602;38.096;2023-01-25T05:46:04;101855.72;;;1.56;68.35
69780;BME280;57052;55.602;38.096;2023-01-25T05:48:30;101857.88;;;1.61;68.66
69780;BME280;57052;55.602;38.096;2023-01-25T05:50:58;101863.72;;;1.64;68.53
69780;BME280;57052;55.602;38.096;2023-01-25T05:53:25;101861.22;;;1.63;68.68
69780;BME280;57052;55.602;38.096;2023-01-25T05:55:51;101852.22;;;1.56;68.32
69780;BME280;57052;55.602;38.096;2023-01-25T05:58:17;101848.75;;;1.55;68.44
69780;BME280;57052;55.602;38.096;2023-01-25T06:00:42;101842.25;;;1.50;68.48
69780;BME280;57052;55.602;38.096;2023-01-25T06:03:08;101837.22;;;1.55;68.91
69780;BME280;57052;55.602;38.096;2023-01-25T06:05:34;101838.88;;;1.56;68.40
69780;BME280;57052;55.602;38.096;2023-01-25T06:07:59;101825.41;;;1.49;68.43
69780;BME280;57052;55.602;38.096;2023-01-25T06:10:25;101832.34;;;1.58;68.58
69780;BME280;57052;55.602;38.096;2023-01-25T06:12:57;101814.38;;;1.52;68.75
69780;BME280;57052;55.602;38.096;2023-01-25T06:15:23;101819.84;;;1.59;68.29
69780;BME280;57052;55.602;38.096;2023-01-25T06:17:53;101829.00;;;1.64;68.25
69780;BME280;57052;55.602;38.096;2023-01-25T06:20:19;101827.84;;;1.67;68.54
69780;BME280;57052;55.602;38.096;2023-01-25T06:22:51;101829.81;;;1.73;68.35
69780;BME280;57052;55.602;38.096;2023-01-25T06:25:17;101821.63;;;1.74;68.53
69780;BME280;57052;55.602;38.096;2023-01-25T06:27:42;101827.09;;;1.81;68.72
69780;BME280;57052;55.602;38.096;2023-01-25T06:30:08;101833.78;;;1.85;68.01
69780;BME280;57052;55.602;38.096;2023-01-25T06:32:34;101828.06;;;1.88;68.03
69780;BME280;57052;55.602;38.096;2023-01-25T06:35:00;101812.09;;;1.80;68.00
69780;BME280;57052;55.602;38.096;2023-01-25T06:37:26;101781.97;;;1.63;67.73
69780;BME280;57052;55.602;38.096;2023-01-25T06:39:52;101827.06;;;1.89;68.20
69780;BME280;57052;55.602;38.096;2023-01-25T06:42:18;101822.56;;;1.89;68.23
69780;BME280;57052;55.602;38.096;2023-01-25T06:44:43;101824.59;;;1.87;67.65
69780;BME280;57052;55.602;38.096;2023-01-25T06:47:09;101812.09;;;1.80;67.69
69780;BME280;57052;55.602;38.096;2023-01-25T06:49:35;101821.75;;;1.81;67.94
69780;BME280;57052;55.602;38.096;2023-01-25T06:52:01;101809.28;;;1.73;68.15
69780;BME280;57052;55.602;38.096;2023-01-25T06:54:27;101808.31;;;1.66;67.79
69780;BME280;57052;55.602;38.096;2023-01-25T06:56:52;101819.97;;;1.73;68.27
69780;BME280;57052;55.602;38.096;2023-01-25T06:59:18;101812.16;;;1.64;67.94
69780;BME280;57052;55.602;38.096;2023-01-25T07:01:44;101807.47;;;1.66;67.43
69780;BME280;57052;55.602;38.096;2023-01-25T07:04:10;101816.00;;;1.69;67.86
69780;BME280;57052;55.602;38.096;2023-01-25T07:06:36;101805.84;;;1.65;67.97
69780;BME280;57052;55.602;38.096;2023-01-25T07:09:05;101824.84;;;1.70;67.83
69780;BME280;57052;55.602;38.096;2023-01-25T07:11:31;101816.44;;;1.73;68.03
69780;BME280;57052;55.602;38.096;2023-01-25T07:13:56;101825.63;;;1.78;67.61
69780;BME280;57052;55.602;38.096;2023-01-25T07:16:22;101823.47;;;1.74;67.58
69780;BME280;57052;55.602;38.096;2023-01-25T07:18:48;101837.97;;;1.79;67.98
69780;BME280;57052;55.602;38.096;2023-01-25T07:21:18;101820.63;;;1.75;67.25
69780;BME280;57052;55.602;38.096;2023-01-25T07:23:45;101802.13;;;1.66;67.67
69780;BME280;57052;55.602;38.096;2023-01-25T07:26:16;101819.13;;;1.73;67.72
69780;BME280;57052;55.602;38.096;2023-01-25T07:28:43;101823.25;;;1.83;67.46
69780;BME280;57052;55.602;38.096;2023-01-25T07:31:08;101827.38;;;1.94;67.62
69780;BME280;57052;55.602;38.096;2023-01-25T07:33:34;101826.84;;;1.99;66.60
69780;BME280;57052;55.602;38.096;2023-01-25T07:36:01;101809.56;;;1.86;66.99
69780;BME280;57052;55.602;38.096;2023-01-25T07:38:27;101828.56;;;1.91;66.67
69780;BME280;57052;55.602;38.096;2023-01-25T07:40:52;101827.59;;;1.84;67.26
69780;BME280;57052;55.602;38.096;2023-01-25T07:43:18;101823.44;;;1.82;66.68
69780;BME280;57052;55.602;38.096;2023-01-25T07:45:45;101830.09;;;1.86;67.15
69780;BME280;57052;55.602;38.096;2023-01-25T07:48:15;101835.63;;;1.84;66.91
69780;BME280;57052;55.602;38.096;2023-01-25T07:50:41;101830.44;;;1.83;66.29
69780;BME280;57052;55.602;38.096;2023-01-25T07:53:07;101824.78;;;1.78;67.05
69780;BME280;57052;55.602;38.096;2023-01-25T07:55:33;101824.94;;;1.84;66.76
69780;BME280;57052;55.602;38.096;2023-01-25T07:57:59;101827.75;;;1.83;66.70
69780;BME280;57052;55.602;38.096;2023-01-25T08:00:25;101832.94;;;1.84;67.05
69780;BME280;57052;55.602;38.096;2023-01-25T08:02:52;101833.41;;;1.88;66.42
69780;BME280;57052;55.602;38.096;2023-01-25T08:05:18;101834.09;;;1.90;67.18
69780;BME280;57052;55.602;38.096;2023-01-25T08:07:44;101840.91;;;1.92;66.19
69780;BME280;57052;55.602;38.096;2023-01-25T08:10:10;101832.38;;;1.97;66.16
69780;BME280;57052;55.602;38.096;2023-01-25T08:12:35;101829.56;;;1.90;66.64
69780;BME280;57052;55.602;38.096;2023-01-25T08:15:02;101831.72;;;1.95;66.71
69780;BME280;57052;55.602;38.096;2023-01-25T08:17:29;101823.34;;;1.98;66.22
69780;BME280;57052;55.602;38.096;2023-01-25T08:20:01;101826.72;;;1.92;66.57
69780;BME280;57052;55.602;38.096;2023-01-25T08:22:28;101820.69;;;1.98;66.44
69780;BME280;57052;55.602;38.096;2023-01-25T08:24:54;101815.72;;;1.95;66.67
69780;BME280;57052;55.602;38.096;2023-01-25T08:27:21;101802.16;;;1.97;66.54
69780;BME280;57052;55.602;38.096;2023-01-25T08:29:47;101820.81;;;2.05;65.80
69780;BME280;57052;55.602;38.096;2023-01-25T08:32:15;101816.78;;;2.09;66.43
69780;BME280;57052;55.602;38.096;2023-01-25T08:34:41;101815.59;;;2.11;66.36
69780;BME280;57052;55.602;38.096;2023-01-25T08:37:06;101801.78;;;2.08;65.78
69780;BME280;57052;55.602;38.096;2023-01-25T08:39:32;101808.63;;;2.10;66.22
69780;BME280;57052;55.602;38.096;2023-01-25T08:41:57;101809.72;;;2.16;65.85
69780;BME280;57052;55.602;38.096;2023-01-25T08:44:23;101804.22;;;2.17;65.85
69780;BME280;57052;55.602;38.096;2023-01-25T08:46:50;101802.22;;;2.19;66.31
69780;BME280;57052;55.602;38.096;2023-01-25T08:49:16;101798.69;;;2.19;65.93
69780;BME280;57052;55.602;38.096;2023-01-25T08:51:42;101797.41;;;2.15;65.55
69780;BME280;57052;55.602;38.096;2023-01-25T08:54:11;101808.78;;;2.09;66.21
69780;BME280;57052;55.602;38.096;2023-01-25T08:56:38;101811.63;;;2.07;66.41
69780;BME280;57052;55.602;38.096;2023-01-25T08:59:04;101811.97;;;2.04;65.71
69780;BME280;57052;55.602;38.096;2023-01-25T09:01:30;101811.38;;;1.94;66.40
69780;BME280;57052;55.602;38.096;2023-01-25T09:03:56;101805.69;;;1.97;66.03
69780;BME280;57052;55.602;38.096;2023-01-25T09:06:22;101804.84;;;1.97;65.98
69780;BME280;57052;55.602;38.096;2023-01-25T09:08:48;101801.03;;;1.91;65.86
69780;BME280;57052;55.602;38.096;2023-01-25T09:11:21;101794.34;;;1.95;66.09
69780;BME280;57052;55.602;38.096;2023-01-25T09:13:47;101783.47;;;1.97;66.19
69780;BME280;57052;55.602;38.096;2023-01-25T09:16:16;101783.13;;;2.00;65.83
69780;BME280;57052;55.602;38.096;2023-01-25T09:18:43;101778.94;;;2.05;65.93
69780;BME280;57052;55.602;38.096;2023-01-25T09:21:12;101768.59;;;2.02;66.36
69780;BME280;57052;55.602;38.096;2023-01-25T09:23:38;101759.56;;;2.03;66.06
69780;BME280;57052;55.602;38.096;2023-01-25T09:26:04;101745.75;;;2.00;65.66
69780;BME280;57052;55.602;38.096;2023-01-25T09:28:30;101758.03;;;2.09;65.86
69780;BME280;57052;55.602;38.096;2023-01-25T09:31:01;101767.00;;;2.16;66.03
69780;BME280;57052;55.602;38.096;2023-01-25T09:33:34;101747.19;;;2.10;65.87
69780;BME280;57052;55.602;38.096;2023-01-25T09:36:00;101751.84;;;2.08;66.02
69780;BME280;57052;55.602;38.096;2023-01-25T09:38:25;101748.00;;;2.11;65.94
69780;BME280;57052;55.602;38.096;2023-01-25T09:46:16;101740.53;;;2.06;65.61
69780;BME280;57052;55.602;38.096;2023-01-25T09:49:02;101736.91;;;1.99;66.44
69780;BME280;57052;55.602;38.096;2023-01-25T09:54:08;101729.97;;;1.90;65.86
69780;BME280;57052;55.602;38.096;2023-01-25T09:56:35;101722.66;;;1.84;66.24
69780;BME280;57052;55.602;38.096;2023-01-25T09:59:11;101719.44;;;1.88;65.95
69780;BME280;57052;55.602;38.096;2023-01-25T10:04:21;101719.63;;;1.87;66.26
69780;BME280;57052;55.602;38.096;2023-01-25T10:06:51;101709.41;;;1.90;66.51
69780;BME280;57052;55.602;38.096;2023-01-25T10:12:13;101702.97;;;1.85;65.84
69780;BME280;57052;55.602;38.096;2023-01-25T10:14:39;101694.66;;;1.80;66.55
69780;BME280;57052;55.602;38.096;2023-01-25T10:17:12;101690.56;;;1.92;65.87
69780;BME280;57052;55.602;38.096;2023-01-25T10:22:28;101683.09;;;1.87;66.67
69780;BME280;57052;55.602;38.096;2023-01-25T10:25:23;101678.16;;;1.76;66.51
69780;BME280;57052;55.602;38.096;2023-01-25T10:28:02;101667.56;;;1.83;66.46
69780;BME280;57052;55.602;38.096;2023-01-25T10:30:41;101634.25;;;1.56;66.76
69780;BME280;57052;55.602;38.096;2023-01-25T10:33:13;101671.44;;;1.80;66.27
69780;BME280;57052;55.602;38.096;2023-01-25T10:35:43;101674.94;;;1.81;66.38
69780;BME280;57052;55.602;38.096;2023-01-25T10:38:35;101672.63;;;1.78;66.26
69780;BME280;57052;55.602;38.096;2023-01-25T10:41:54;101658.16;;;1.72;66.86
69780;BME280;57052;55.602;38.096;2023-01-25T10:43:56;101659.41;;;1.62;66.72
69780;BME280;57052;55.602;38.096;2023-01-25T10:46:48;101665.16;;;1.73;66.68
69780;BME280;57052;55.602;38.096;2023-01-25T10:49:32;101656.91;;;1.60;66.59
69780;BME280;57052;55.602;38.096;2023-01-25T10:52:17;101664.84;;;1.68;66.65
69780;BME280;57052;55.602;38.096;2023-01-25T10:54:44;101669.66;;;1.73;66.99
69780;BME280;57052;55.602;38.096;2023-01-25T10:57:15;101675.91;;;1.65;67.32
69780;BME280;57052;55.602;38.096;2023-01-25T10:59:44;101674.75;;;1.60;66.97
69780;BME280;57052;55.602;38.096;2023-01-25T11:02:44;101670.94;;;1.54;66.69
69780;BME280;57052;55.602;38.096;2023-01-25T11:05:35;101664.72;;;1.62;66.80
69780;BME280;57052;55.602;38.096;2023-01-25T11:10:56;101654.91;;;1.62;66.80
69780;BME280;57052;55.602;38.096;2023-01-25T11:13:28;101655.44;;;1.58;67.25
69780;BME280;57052;55.602;38.096;2023-01-25T11:16:11;101647.88;;;1.61;66.48
69780;BME280;57052;55.602;38.096;2023-01-25T11:18:50;101642.47;;;1.47;66.21
69780;BME280;57052;55.602;38.096;2023-01-25T11:21:19;101633.47;;;1.48;66.40
69780;BME280;57052;55.602;38.096;2023-01-25T11:26:33;101635.72;;;1.59;66.91
69780;BME280;57052;55.602;38.096;2023-01-25T11:29:13;101629.94;;;1.55;65.97
69780;BME280;57052;55.602;38.096;2023-01-25T11:31:43;101605.22;;;1.30;66.49
69780;BME280;57052;55.602;38.096;2023-01-25T11:34:13;101621.47;;;1.44;66.16
69780;BME280;57052;55.602;38.096;2023-01-25T11:36:50;101623.50;;;1.42;65.84
69780;BME280;57052;55.602;38.096;2023-01-25T11:39:39;101619.66;;;1.44;66.32
69780;BME280;57052;55.602;38.096;2023-01-25T11:45:20;101610.03;;;1.35;66.15
69780;BME280;57052;55.602;38.096;2023-01-25T11:51:25;101613.00;;;1.40;65.94
69780;BME280;57052;55.602;38.096;2023-01-25T12:10:26;101596.88;;;1.34;65.32
69780;BME280;57052;55.602;38.096;2023-01-25T12:12:56;101591.53;;;1.34;65.36
69780;BME280;57052;55.602;38.096;2023-01-25T12:21:09;101601.19;;;1.35;65.30
69780;BME280;57052;55.602;38.096;2023-01-25T12:23:45;101605.50;;;1.36;65.86
69780;BME280;57052;55.602;38.096;2023-01-25T12:28:53;101591.88;;;1.30;65.93
69780;BME280;57052;55.602;38.096;2023-01-25T12:31:44;101600.06;;;1.29;65.25
69780;BME280;57052;55.602;38.096;2023-01-25T12:34:29;101600.41;;;1.26;65.18
69780;BME280;57052;55.602;38.096;2023-01-25T12:36:59;101608.94;;;1.21;65.97
69780;BME280;57052;55.602;38.096;2023-01-25T12:39:32;101585.50;;;1.09;65.59
69780;BME280;57052;55.602;38.096;2023-01-25T12:49:37;101584.66;;;1.08;65.52
69780;BME280;57052;55.602;38.096;2023-01-25T12:52:21;101577.00;;;1.05;65.83
69780;BME280;57052;55.602;38.096;2023-01-25T12:54:49;101587.81;;;1.12;65.90
69780;BME280;57052;55.602;38.096;2023-01-25T12:57:25;101584.03;;;1.06;65.90
69780;BME280;57052;55.602;38.096;2023-01-25T13:00:05;101576.66;;;1.08;65.87
69780;BME280;57052;55.602;38.096;2023-01-25T13:08:16;101546.97;;;0.89;66.29
69780;BME280;57052;55.602;38.096;2023-01-25T13:10:42;101560.72;;;1.00;65.60
69780;BME280;57052;55.602;38.096;2023-01-25T13:13:26;101566.66;;;1.10;65.95
69780;BME280;57052;55.602;38.096;2023-01-25T13:15:54;101559.50;;;1.11;65.85
69780;BME280;57052;55.602;38.096;2023-01-25T13:20:51;101566.34;;;1.05;66.32
69780;BME280;57052;55.602;38.096;2023-01-25T13:23:38;101552.41;;;0.95;66.36
69780;BME280;57052;55.602;38.096;2023-01-25T13:28:47;101555.38;;;1.00;66.00
69780;BME280;57052;55.602;38.096;2023-01-25T13:42:34;101545.03;;;1.05;66.18
69780;BME280;57052;55.602;38.096;2023-01-25T13:45:18;101533.56;;;1.05;66.13
69780;BME280;57052;55.602;38.096;2023-01-25T13:48:02;101535.69;;;1.09;66.64
69780;BME280;57052;55.602;38.096;2023-01-25T13:50:35;101520.44;;;1.18;66.15
69780;BME280;57052;55.602;38.096;2023-01-25T13:55:43;101514.69;;;1.06;66.67
69780;BME280;57052;55.602;38.096;2023-01-25T14:00:57;101508.88;;;1.03;66.18
69780;BME280;57052;55.602;38.096;2023-01-25T14:03:28;101489.63;;;0.93;66.39
69780;BME280;57052;55.602;38.096;2023-01-25T14:05:56;101508.19;;;1.09;66.77
69780;BME280;57052;55.602;38.096;2023-01-25T14:08:25;101495.25;;;0.98;66.39
69780;BME280;57052;55.602;38.096;2023-01-25T14:10:52;101496.88;;;1.07;66.32
69780;BME280;57052;55.602;38.096;2023-01-25T14:13:18;101488.56;;;1.02;66.64
69780;BME280;57052;55.602;38.096;2023-01-25T14:15:58;101493.47;;;1.13;66.02
69780;BME280;57052;55.602;38.096;2023-01-25T14:21:16;101483.19;;;1.10;66.03
69780;BME280;57052;55.602;38.096;2023-01-25T14:23:42;101478.81;;;1.17;66.47
69780;BME280;57052;55.602;38.096;2023-01-25T14:26:25;101462.16;;;1.15;66.10
69780;BME280;57052;55.602;38.096;2023-01-25T14:28:55;101465.41;;;1.02;65.99
69780;BME280;57052;55.602;38.096;2023-01-25T14:31:24;101466.72;;;1.06;66.53
69780;BME280;57052;55.602;38.096;2023-01-25T14:33:51;101455.09;;;0.99;66.67
69780;BME280;57052;55.602;38.096;2023-01-25T14:36:23;101448.09;;;0.98;66.56